x

Neah Bay, - 6nm North Of Cape Flattery, Wa (traffic Separation Lighted Buoy) (46087) Wave Buoy

2:50 - Thu 24th Apr 2014 All times are PDT. -7 hours from GMT.

  • Sig Wave height 7.5ft
  • Swell Direction
  • Peak Period 8s
  • Average Period 7s
  • Wind
    22mph, 27mph gusts
  • Sea Temp 49°f
  • Luft Temp 49°f
  • Sea Pressure 1009mb
  • Neah Bay, - 6nm North Of Cape Flattery, Wa     (traffic Separation Lighted Buoy)
  • Neah Bay, - 6nm North Of Cape Flattery, Wa     (traffic Separation Lighted Buoy)

More Historic Weather Station data

Upgrade to MSW Pro to gain access to the past 30 days of data for over 8000 Wavebouys and Weather Stations around the globe.

Join Pro

Comparision Forecast

View Surf forecast
   
Do 04/24 2:50 7.5ft 8s 7s 22 27 mph 1009mb 49f 49f
2:20  -   -   -  20 22 mph 1008.7mb 49f 50f
1:50 7ft 9s 6s 20 25 mph 1008.4mb 49f 48f
1:20  -   -   -  20 25 mph 1007.8mb 49f 49f
12:50 7ft 8s 6s 20 22 mph 1007.4mb 49f 49f
12:20  -   -   -  16 22 mph 1007.1mb 49f 49f
11:50 6.5ft 8s 6s 18 20 mph 1006.6mb 49f 50f
11:20  -   -   -  16 20 mph 1006.2mb 49f 49f
10:50 6.5ft 8s 6s 13 18 mph 1005.7mb 49f 49f
10:20  -   -   -  13 18 mph 1005mb 49f 48f
9:50 6ft 8s 6s 16 18 mph 1004.3mb 49f 48f
9:20  -   -   -  16 20 mph 1003.6mb 49f 49f
8:50 6.5ft 8s 6s 13 16 mph 1002.9mb 49f 48f
8:20  -   -   -  18 22 mph 1002.4mb 49f 47f
7:50 6ft 10s 6s 22 29 mph 1001.9mb 49f 48f
7:20  -   -   -  18 20 mph 1001.5mb 49f 50f
6:50 5.5ft 8s 6s 13 18 mph 1001.6mb 49f 49f
6:20  -   -   -  16 18 mph 1001.4mb 49f 50f
5:50 5ft 10s 6s 11 13 mph 1001.2mb 49f 49f
5:20  -   -   -  11 13 mph 1001mb 49f 49f
4:50 5ft 10s 5s 13 16 mph 1000.8mb 49f 49f
4:20  -   -   -  18 25 mph 1000.5mb 49f 49f
3:50 5ft 10s 5s 18 22 mph 999.9mb 49f 49f
3:20  -   -   -  22 29 mph 999.3mb 49f 50f
2:50 5.5ft 5s 5s 20 22 mph 999.1mb 49f 50f
2:20  -   -   -  22 29 mph 998.9mb 49f 47f
1:50 5.5ft 6s 5s 22 29 mph 998.8mb 49f 47f
1:20  -   -   -  27 34 mph 998.5mb 48f 47f
12:50 5ft 5s 5s 27 31 mph 998.9mb 48f 48f
12:20  -   -   -  27 31 mph 998.9mb 48f 48f
Mi 04/23 11:50 4.5ft 11s 5s 22 27 mph 999.3mb 49f 48f
11:20  -   -   -  27 31 mph 999.5mb 48f 48f
10:50 4.5ft 11s 5s 29 38 mph 999.9mb 48f 48f
10:20  -   -   -  20 25 mph 1000.9mb 48f 48f
9:50 4.5ft 11s 6s 18 22 mph 1001.5mb 48f 48f
9:20  -   -   -  20 25 mph 1002.1mb 48f 47f
8:50 5.5ft 11s 7s 20 25 mph 1002.7mb 48f 47f
8:20  -   -   -  20 27 mph 1003.2mb 48f 48f
7:50 6ft 11s 7s 16 22 mph 1004mb 49f 47f
7:20  -   -   -  18 22 mph 1004.7mb 49f 48f
6:50 7ft 11s 7s 16 20 mph 1005mb 49f 48f
6:20  -   -   -  16 20 mph 1005.6mb 48f 48f
5:50 6ft 12s 8s 16 18 mph 1006.4mb 48f 49f
5:20  -   -   -  11 16 mph 1007.1mb 48f 48f
4:50 7ft 11s 8s 11 16 mph 1007.5mb 48f 48f
4:20  -   -   -  11
mph
1007.9mb 48f 47f
3:50 7ft 11s 8s 11 13 mph 1008.7mb 48f 48f
3:20  -   -   -  9 13 mph 1009.4mb 48f 48f
2:50 7ft 11s 8s 9 13 mph 1009.9mb 48f 48f
2:20  -   -   -  13 16 mph 1010.1mb 48f 47f
1:50 8ft 11s 8s 11 16 mph 1010.5mb 48f 47f
1:20  -   -   -  11 16 mph 1010.6mb 48f 47f
12:50 8.5ft 12s 8s 13 18 mph 1010.7mb 48f 47f
12:20  -   -   -  16 18 mph 1010.9mb 48f 46f
11:50 9ft 12s 8s 16 20 mph 1010.8mb 48f 47f
11:20  -   -   -  11 16 mph 1010.8mb 48f 47f
10:50 8ft 11s 8s 16 20 mph 1010.5mb 48f 47f
10:20  -   -   -  16 18 mph 1010.4mb 48f 46f
9:50 7.5ft 12s 7s 16 20 mph 1010.2mb 48f 46f
9:20  -   -   -  13 16 mph 1010.1mb 48f 46f
8:50 8.5ft 12s 8s 13 16 mph 1010.2mb 48f 46f
8:20  -   -   -  11 13 mph 1010.1mb 48f 45f
7:50 8ft 13s 8s 9 16 mph 1010.2mb 48f 46f
7:20  -   -   -  13 18 mph 1010mb 48f 46f
6:50 8ft 13s 8s 16 20 mph 1009.8mb 48f 45f
6:20  -   -   -  13 18 mph 1009.8mb 48f 46f
5:50 7ft 13s 8s 11 16 mph 1009.7mb 48f 46f
5:20  -   -   -  11 13 mph 1009.7mb 48f 46f
4:50 7.5ft 13s 9s 13 16 mph 1009.7mb 48f 46f
4:20  -   -   -  16 18 mph 1009.5mb 48f 46f
3:50 7.5ft 13s 9s 13 18 mph 1009.5mb 48f 46f
3:20  -   -   -  11 13 mph 1009.6mb 48f 46f
2:50 7ft 13s 8s 11 13 mph 1009.7mb 48f 45f
2:20  -   -   -  7 13 mph 1010mb 48f 45f
1:50 7ft 12s 8s 11 18 mph 1009.5mb 48f 45f
1:20  -   -   -  16 18 mph 1009.6mb 48f 46f
12:50 7ft 13s 8s 9 11 mph 1009.9mb 48f 46f
12:20  -   -   -  11 16 mph 1009.7mb 48f 46f
Di 04/22 11:50 8ft 13s 8s 16 20 mph 1009.3mb 48f 46f
11:20  -   -   -  16 22 mph 1009.3mb 48f 46f
10:50 8ft 13s 8s 16 20 mph 1009.3mb 48f 46f
10:20  -   -   -  18 22 mph 1009.5mb 48f 46f
9:50 8ft 11s 8s 18 22 mph 1009.5mb 48f 45f
9:20  -   -   -  18 22 mph 1009.3mb 48f 46f
8:50 9ft 11s 8s 16 22 mph 1009.1mb 48f 45f
8:20  -   -   -  16 20 mph 1009.2mb 48f 46f
7:50 8.5ft 12s 8s 16 22 mph 1009.3mb 48f 46f
7:20  -   -   -  13 16 mph 1009.7mb 48f 46f
6:50 8ft 12s 8s 13 16 mph 1009.9mb 48f 46f
6:20  -   -   -  18 20 mph 1010mb 48f 45f
5:50 8ft 12s 8s 16 20 mph 1010.2mb 48f 46f
5:20  -   -   -  18 27 mph 1010.4mb 48f 46f
4:50 7ft 12s 9s 9 16 mph 1010.4mb 48f 49f
4:20  -   -   -  9 16 mph 1010.6mb 48f 48f
3:50 7ft 12s 8s 13 16 mph 1010.9mb 48f 48f
3:20  -   -   -  18 25 mph 1011mb 48f 48f
2:50 6ft 13s 8s 16 20 mph 1011.1mb 48f 49f
2:20  -   -   -  16 20 mph 1011.1mb 49f 49f
1:50 7ft 13s 9s 16 20 mph 1011.1mb 48f 49f
1:20  -   -   -  4 9 mph 1011.5mb 48f 47f
12:50 7.5ft 12s 9s 9 11 mph 1011.6mb 48f 48f
12:20  -   -   -  13 16 mph 1011.5mb 49f 48f
11:50 7ft 12s 8s 7 13 mph 1011.6mb 49f 47f
11:20  -   -   -  4 13 mph 1011.6mb 49f 47f
10:50 7.5ft 12s 9s 4 7 mph 1011.5mb 49f 47f
10:20  -   -   -  7 9 mph 1011.3mb 49f 47f
9:50 7ft 13s 8s 4 7 mph 1011.2mb 49f 47f
9:20  -   -   -  7 9 mph 1011.1mb 48f 47f
8:50 8ft 13s 8s 9 11 mph 1011.1mb 48f 47f
8:20  -   -   -  11 13 mph 1011.1mb 48f 47f
7:50 8ft 12s 8s 11 13 mph 1011.1mb 48f 47f
7:20  -   -   -  11 16 mph 1011.1mb 48f 47f
6:50 9ft 12s 8s 11 13 mph 1011.2mb 48f 47f
6:20  -   -   -  13 16 mph 1011.2mb 48f 47f
5:50 10ft 11s 9s 13 18 mph 1011mb 48f 47f
5:20  -   -   -  13 18 mph 1011mb 48f 47f
4:50 8.5ft 12s 8s 16 20 mph 1011.1mb 48f 47f
4:20  -   -   -  16 18 mph 1011.1mb 48f 47f
3:50 9ft 11s 9s 18 20 mph 1011.1mb 48f 47f
3:20  -   -   -  18 20 mph 1011.1mb 48f 47f
2:50 8ft 12s 8s 16 20 mph 1011.1mb 48f 47f
2:20  -   -   -  16 20 mph 1011mb 48f 47f
1:50 8.5ft 12s 9s 16 20 mph 1011.3mb 48f 47f
1:20  -   -   -  16 20 mph 1011.6mb 48f 48f
12:50 8ft 14s 8s 18 20 mph 1011.4mb 48f 48f
12:20  -   -   -  16 20 mph 1011.6mb 48f 48f
Mo 04/21 11:50 7ft 13s 8s 16 18 mph 1011.9mb 48f 48f
11:20  -   -   -  16 18 mph 1011.8mb 48f 48f
10:50 8.5ft 12s 9s 16 18 mph 1012mb 48f 48f
10:20  -   -   -  13 16 mph 1012.4mb 48f 48f
9:50 8ft 14s 9s 13 16 mph 1012.5mb 48f 48f
9:20  -   -   -  13 18 mph 1012.7mb 48f 48f
8:50 8.5ft 11s 9s 13 16 mph 1012.7mb 48f 48f
8:20  -   -   -  13 16 mph 1012.5mb 48f 48f
7:50 9ft 13s 8s 13 16 mph 1012.8mb 48f 48f
7:20  -   -   -  13 16 mph 1013.3mb 48f 48f
6:50 10ft 13s 8s 11 13 mph 1013.5mb 48f 48f
6:20  -   -   -  9 11 mph 1014mb 48f 48f
5:50 11ft 14s 9s 9 13 mph 1014.4mb 48f 48f
5:20  -   -   -  9 13 mph 1014.5mb 48f 48f
4:50 10ft 13s 8s 9 11 mph 1014.3mb 48f 48f
3:50 13ft 11s 10s 9 11 mph 1014.8mb 48f 48f
3:20  -   -   -  11 16 mph 1015.1mb 48f 47f
2:50 12ft 11s 9s 11 16 mph 1015.3mb 48f 47f
2:20  -   -   -  9 13 mph 1015.2mb 48f 47f
1:50 11.5ft 12s 10s 7 11 mph 1015.4mb 48f 47f
1:20  -   -   -  4 7 mph 1015.9mb 49f 47f
12:50 13ft 14s 10s 7 9 mph 1016.2mb 49f 47f
12:20  -   -   -  4 9 mph 1016.6mb 49f 47f
11:50 12ft 14s 11s 2 4 mph 1016.7mb 49f 47f
11:20  -   -   -   -  2 mph 1016.9mb 49f 47f
10:50 11ft 12s 10s  -  2 mph 1016.9mb 48f 47f
10:20  -   -   -  2 7 mph 1017mb 48f 47f
9:50 10.5ft 12s 11s 2 4 mph 1017.2mb 48f 46f
9:20  -   -   -  4 7 mph 1017.3mb 48f 46f
8:50 11ft 13s 11s 4 9 mph 1017.4mb 48f 46f
8:20  -   -   -  4 7 mph 1017.6mb 48f 46f
7:50 11ft 13s 11s 4 7 mph 1017.8mb 48f 46f
7:20  -   -   -  4 9 mph 1017.7mb 48f 46f
6:50 9ft 13s 10s 7 9 mph 1017.7mb 48f 46f
6:20  -   -   -  9 13 mph 1017.7mb 48f 46f
5:50 8ft 14s 10s 9 13 mph 1017.9mb 48f 46f
5:20  -   -   -  11 13 mph 1018.1mb 48f 46f
4:50 8.5ft 14s 9s 9 13 mph 1018.2mb 49f 46f
4:20  -   -   -  9 11 mph 1018.4mb 49f 47f
3:50 7.5ft 14s 9s 9 11 mph 1018.7mb 48f 47f
3:20  -   -   -  9 13 mph 1018.9mb 48f 47f
2:50 9ft 15s 9s 13 18 mph 1019mb 48f 47f
2:20  -   -   -  13 18 mph 1019.1mb 48f 47f
1:50 9.5ft 15s 10s 16 20 mph 1019.1mb 48f 47f
1:20  -   -   -  11 16 mph 1019.3mb 48f 47f
12:50 9.5ft 15s 10s 13 20 mph 1019.2mb 49f 47f
12:20  -   -   -  13 16 mph 1019.4mb 48f 47f
So 04/20 11:50 10.5ft 14s 10s 9 13 mph 1019.7mb 48f 48f
11:20  -   -   -  9 13 mph 1019.8mb 48f 48f
10:50 11ft 14s 10s 11 16 mph 1019.9mb 48f 48f